^^
Datos históricos de la estación: Murcia-Puente Tocinos
Diario Informe para Junio 15, 2019 Unidades:  Ambas    Inglés   Métrico
Diario Semanal Mensual Anual Configurable
  Máximo: Mínimo: Media:
Temperatura: 86.9 °F /  30.5 °C 70.9 °F /  21.6 °C 77.4 °F /  25.2 °C
Punto de rocio: 55 °F /  12.8 °C 40.3 °F /  4.6 °C 45.3 °F /  7.4 °C
Humedad: 51% 24% 33%
Velocidad viento: 16mph /  25.7km/h - 7.5mph /  12.1km/h
Racha viento: 32mph /  51.5km/h - -
Viento- - SSW
Presión: 30 in /  1016.5 hPa 29.9 in /  1011.5 hPa -
Precipitación: 0 in /  0.0 mm    
Historical Graphs
 
 
Tabla de datos para Junio 15, 2019
Hora Temperatura Punto de rocio Presión Viento Velocidad viento Racha viento Humedad Intensidad lluvia(por hora) Nubes
00:00 75.9 °F /  24.4 °C 53.6 °F /  12.0 °C 29.9in /  1011.5hPa SSW 5mph /  8.0km/h 7mph /  11.3km/h 46% 0in /  0.0mm RA
00:05 75.7 °F /  24.3 °C 54.1 °F /  12.3 °C 29.9in /  1011.7hPa SSW 5mph /  8.0km/h 9mph /  14.5km/h 47% 0in /  0.0mm RA
00:10 75.6 °F /  24.2 °C 53.8 °F /  12.1 °C 29.9in /  1011.7hPa SSW 5mph /  8.0km/h 9mph /  14.5km/h 47% 0in /  0.0mm CLR
00:15 75.2 °F /  24.0 °C 53.6 °F /  12.0 °C 29.9in /  1011.7hPa SSW 5mph /  8.0km/h 7mph /  11.3km/h 47% 0in /  0.0mm CLR
00:20 75 °F /  23.9 °C 54 °F /  12.2 °C 29.9in /  1011.8hPa SW 5mph /  8.0km/h 8mph /  12.9km/h 48% 0in /  0.0mm CLR
00:25 75 °F /  23.9 °C 54 °F /  12.2 °C 29.9in /  1011.8hPa SW 5mph /  8.0km/h 6mph /  9.7km/h 48% 0in /  0.0mm CLR
00:29 74.8 °F /  23.8 °C 53.8 °F /  12.1 °C 29.9in /  1011.8hPa SW 3.6mph /  5.8km/h 4.6mph /  7.4km/h 48% 0in /  0.0mm CLR
00:35 74.8 °F /  23.8 °C 53.8 °F /  12.1 °C 29.9in /  1012.0hPa SW 3mph /  4.8km/h 6mph /  9.7km/h 48% 0in /  0.0mm CLR
00:40 74.8 °F /  23.8 °C 54.3 °F /  12.4 °C 29.9in /  1012.0hPa SW 2mph /  3.2km/h 7mph /  11.3km/h 49% 0in /  0.0mm CLR
00:45 74.8 °F /  23.8 °C 54.3 °F /  12.4 °C 29.9in /  1012.0hPa SW 2mph /  3.2km/h 6mph /  9.7km/h 49% 0in /  0.0mm CLR
00:50 74.8 °F /  23.8 °C 54.9 °F /  12.7 °C 29.9in /  1012.1hPa WSW 3mph /  4.8km/h 7mph /  11.3km/h 50% 0in /  0.0mm CLR
00:55 74.5 °F /  23.6 °C 54.7 °F /  12.6 °C 29.9in /  1012.1hPa West 3mph /  4.8km/h 7mph /  11.3km/h 50% 0in /  0.0mm CLR
00:59 74.3 °F /  23.5 °C 55 °F /  12.8 °C 29.9in /  1012.1hPa WSW 4mph /  6.4km/h 5.8mph /  9.3km/h 51% 0in /  0.0mm CLR
01:05 74.1 °F /  23.4 °C 54.3 °F /  12.4 °C 29.9in /  1012.0hPa WSW 5mph /  8.0km/h 8mph /  12.9km/h 50% 0in /  0.0mm CLR
01:10 73.9 °F /  23.3 °C 54.1 °F /  12.3 °C 29.9in /  1012.0hPa SW 5mph /  8.0km/h 6mph /  9.7km/h 50% 0in /  0.0mm CLR
01:15 73.8 °F /  23.2 °C 54.5 °F /  12.5 °C 29.9in /  1012.0hPa SW 5mph /  8.0km/h 6mph /  9.7km/h 51% 0in /  0.0mm CLR
01:20 73.8 °F /  23.2 °C 54.5 °F /  12.5 °C 29.9in /  1012.1hPa SW 5mph /  8.0km/h 8mph /  12.9km/h 51% 0in /  0.0mm CLR
01:25 73.6 °F /  23.1 °C 54.3 °F /  12.4 °C 29.9in /  1012.1hPa SSW 5mph /  8.0km/h 8mph /  12.9km/h 51% 0in /  0.0mm CLR
01:30 73.6 °F /  23.1 °C 54.3 °F /  12.4 °C 29.9in /  1012.1hPa SSW 5mph /  8.0km/h 9mph /  14.5km/h 51% 0in /  0.0mm CLR
01:35 73.6 °F /  23.1 °C 53.8 °F /  12.1 °C 29.9in /  1012.0hPa SW 5mph /  8.0km/h 8mph /  12.9km/h 50% 0in /  0.0mm CLR
01:40 74.1 °F /  23.4 °C 52.5 °F /  11.4 °C 29.9in /  1012.0hPa WSW 5mph /  8.0km/h 10mph /  16.1km/h 47% 0in /  0.0mm CLR
01:45 74.5 °F /  23.6 °C 51.1 °F /  10.6 °C 29.9in /  1012.0hPa West 5mph /  8.0km/h 9mph /  14.5km/h 44% 0in /  0.0mm CLR
01:49 75 °F /  23.9 °C 49.1 °F /  9.5 °C 29.9in /  1012.0hPa West 5.4mph /  8.7km/h 11.5mph /  18.5km/h 40% 0in /  0.0mm CLR
01:55 75.4 °F /  24.1 °C 48 °F /  8.9 °C 29.9in /  1012.0hPa West 6mph /  9.7km/h 9mph /  14.5km/h 38% 0in /  0.0mm CLR
02:00 75.6 °F /  24.2 °C 47.5 °F /  8.6 °C 29.9in /  1012.0hPa West 5mph /  8.0km/h 13mph /  20.9km/h 37% 0in /  0.0mm CLR
02:05 75.4 °F /  24.1 °C 46.6 °F /  8.1 °C 29.9in /  1012.0hPa West 5mph /  8.0km/h 10mph /  16.1km/h 36% 0in /  0.0mm CLR
02:10 75.6 °F /  24.2 °C 45.1 °F /  7.3 °C 29.9in /  1012.0hPa West 6mph /  9.7km/h 10mph /  16.1km/h 34% 0in /  0.0mm CLR
02:15 75.6 °F /  24.2 °C 45.1 °F /  7.3 °C 29.9in /  1012.0hPa West 6mph /  9.7km/h 8mph /  12.9km/h 34% 0in /  0.0mm CLR
02:20 75.6 °F /  24.2 °C 44.4 °F /  6.9 °C 29.9in /  1012.4hPa WSW 5mph /  8.0km/h 9mph /  14.5km/h 33% 0in /  0.0mm CLR
02:25 75.7 °F /  24.3 °C 43.9 °F /  6.6 °C 29.9in /  1012.4hPa WSW 5mph /  8.0km/h 8mph /  12.9km/h 32% 0in /  0.0mm CLR
02:30 75.7 °F /  24.3 °C 43.9 °F /  6.6 °C 29.9in /  1012.4hPa WSW 5mph /  8.0km/h 6mph /  9.7km/h 32% 0in /  0.0mm CLR
02:34 75.7 °F /  24.3 °C 43.9 °F /  6.6 °C 29.9in /  1012.5hPa West 4mph /  6.4km/h 8.1mph /  13.0km/h 32% 0in /  0.0mm CLR
02:40 75.6 °F /  24.2 °C 43.7 °F /  6.5 °C 29.9in /  1012.5hPa West 5mph /  8.0km/h 7mph /  11.3km/h 32% 0in /  0.0mm CLR
02:45 75.6 °F /  24.2 °C 42.8 °F /  6.0 °C 29.9in /  1012.5hPa NW 4.3mph /  6.9km/h 11.5mph /  18.5km/h 31% 0in /  0.0mm CLR
02:50 75.6 °F /  24.2 °C 41.9 °F /  5.5 °C 29.9in /  1012.4hPa WNW 6mph /  9.7km/h 15mph /  24.1km/h 30% 0in /  0.0mm CLR
02:55 75.4 °F /  24.1 °C 41.7 °F /  5.4 °C 29.9in /  1012.4hPa WNW 6mph /  9.7km/h 21mph /  33.8km/h 30% 0in /  0.0mm CLR
03:00 75.4 °F /  24.1 °C 41.7 °F /  5.4 °C 29.9in /  1012.4hPa WNW 9mph /  14.5km/h 17mph /  27.4km/h 30% 0in /  0.0mm CLR
03:05 75.2 °F /  24.0 °C 41.5 °F /  5.3 °C 29.9in /  1012.3hPa WNW 9mph /  14.5km/h 19mph /  30.6km/h 30% 0in /  0.0mm CLR
03:10 75 °F /  23.9 °C 40.6 °F /  4.8 °C 29.9in /  1012.3hPa WNW 12mph /  19.3km/h 30mph /  48.3km/h 29% 0in /  0.0mm CLR
03:15 75 °F /  23.9 °C 40.6 °F /  4.8 °C 29.9in /  1012.3hPa WNW 12mph /  19.3km/h 32mph /  51.5km/h 29% 0in /  0.0mm CLR
03:20 75 °F /  23.9 °C 40.6 °F /  4.8 °C 29.9in /  1012.3hPa WNW 14mph /  22.5km/h 25mph /  40.2km/h 29% 0in /  0.0mm CLR
03:25 74.8 °F /  23.8 °C 40.5 °F /  4.7 °C 29.9in /  1012.3hPa WNW 14mph /  22.5km/h 24mph /  38.6km/h 29% 0in /  0.0mm CLR
03:30 74.8 °F /  23.8 °C 40.5 °F /  4.7 °C 29.9in /  1012.3hPa WNW 12mph /  19.3km/h 19mph /  30.6km/h 29% 0in /  0.0mm CLR
03:34 74.7 °F /  23.7 °C 40.3 °F /  4.6 °C 29.9in /  1012.5hPa WNW 11.8mph /  19.0km/h 18.5mph /  29.8km/h 29% 0in /  0.0mm CLR
03:40 74.7 °F /  23.7 °C 41.2 °F /  5.1 °C 29.9in /  1012.5hPa WNW 12mph /  19.3km/h 22mph /  35.4km/h 30% 0in /  0.0mm CLR
03:44 74.5 °F /  23.6 °C 41 °F /  5.0 °C 29.9in /  1012.5hPa WSW 11.8mph /  19.0km/h 20.7mph /  33.3km/h 30% 0in /  0.0mm CLR
03:50 74.3 °F /  23.5 °C 40.8 °F /  4.9 °C 29.9in /  1012.6hPa West 12mph /  19.3km/h 17mph /  27.4km/h 30% 0in /  0.0mm CLR
03:55 74.1 °F /  23.4 °C 40.6 °F /  4.8 °C 29.9in /  1012.6hPa West 12mph /  19.3km/h 21mph /  33.8km/h 30% 0in /  0.0mm CLR
04:00 74.1 °F /  23.4 °C 41.5 °F /  5.3 °C 29.9in /  1012.6hPa West 9mph /  14.5km/h 16mph /  25.7km/h 31% 0in /  0.0mm CLR
04:04 73.9 °F /  23.3 °C 41.4 °F /  5.2 °C 29.9in /  1012.7hPa West 8.7mph /  14.0km/h 16.1mph /  25.9km/h 31% 0in /  0.0mm CLR
04:10 73.9 °F /  23.3 °C 41.4 °F /  5.2 °C 29.9in /  1012.7hPa West 9mph /  14.5km/h 16mph /  25.7km/h 31% 0in /  0.0mm CLR
04:15 73.8 °F /  23.2 °C 41.2 °F /  5.1 °C 29.9in /  1012.7hPa West 9mph /  14.5km/h 14mph /  22.5km/h 31% 0in /  0.0mm CLR
04:20 73.6 °F /  23.1 °C 41.2 °F /  5.1 °C 29.9in /  1013.0hPa West 7mph /  11.3km/h 14mph /  22.5km/h 31% 0in /  0.0mm CLR
04:25 73.6 °F /  23.1 °C 41.2 °F /  5.1 °C 29.9in /  1013.0hPa WSW 7mph /  11.3km/h 20mph /  32.2km/h 31% 0in /  0.0mm CLR
04:29 73.2 °F /  22.9 °C 41.5 °F /  5.3 °C 29.9in /  1013.0hPa WNW 8.5mph /  13.7km/h 15mph /  24.1km/h 32% 0in /  0.0mm CLR
04:35 73.2 °F /  22.9 °C 41.5 °F /  5.3 °C 29.9in /  1013.1hPa West 8mph /  12.9km/h 18mph /  29.0km/h 32% 0in /  0.0mm CLR
04:40 73 °F /  22.8 °C 41.4 °F /  5.2 °C 29.9in /  1013.1hPa West 10mph /  16.1km/h 19mph /  30.6km/h 32% 0in /  0.0mm CLR
04:45 72.9 °F /  22.7 °C 41.4 °F /  5.2 °C 29.9in /  1013.1hPa West 10mph /  16.1km/h 21mph /  33.8km/h 32% 0in /  0.0mm CLR
04:50 72.9 °F /  22.7 °C 42.1 °F /  5.6 °C 29.9in /  1013.2hPa West 9mph /  14.5km/h 17mph /  27.4km/h 33% 0in /  0.0mm CLR
04:54 72.9 °F /  22.7 °C 42.1 °F /  5.6 °C 29.9in /  1013.2hPa WNW 9.2mph /  14.8km/h 17.8mph /  28.6km/h 33% 0in /  0.0mm CLR
05:00 72.7 °F /  22.6 °C 41.9 °F /  5.5 °C 29.9in /  1013.2hPa West 10mph /  16.1km/h 20mph /  32.2km/h 33% 0in /  0.0mm CLR
05:05 72.7 °F /  22.6 °C 41.9 °F /  5.5 °C 29.9in /  1013.2hPa WNW 10mph /  16.1km/h 18mph /  29.0km/h 33% 0in /  0.0mm CLR
05:10 72.5 °F /  22.5 °C 42.4 °F /  5.8 °C 29.9in /  1013.2hPa WNW 8mph /  12.9km/h 15mph /  24.1km/h 34% 0in /  0.0mm CLR
05:14 72.3 °F /  22.4 °C 42.4 °F /  5.8 °C 29.9in /  1013.2hPa WNW 8.1mph /  13.0km/h 17.3mph /  27.8km/h 34% 0in /  0.0mm CLR
05:20 72.3 °F /  22.4 °C 42.4 °F /  5.8 °C 29.9in /  1013.3hPa West 8mph /  12.9km/h 15mph /  24.1km/h 34% 0in /  0.0mm CLR
05:25 72.3 °F /  22.4 °C 43.2 °F /  6.2 °C 29.9in /  1013.3hPa WNW 8mph /  12.9km/h 17mph /  27.4km/h 35% 0in /  0.0mm CLR
05:30 72.1 °F /  22.3 °C 43 °F /  6.1 °C 29.9in /  1013.3hPa WNW 7mph /  11.3km/h 14mph /  22.5km/h 35% 0in /  0.0mm CLR
05:35 72.1 °F /  22.3 °C 43 °F /  6.1 °C 29.9in /  1013.6hPa West 7mph /  11.3km/h 17mph /  27.4km/h 35% 0in /  0.0mm CLR
05:40 72 °F /  22.2 °C 43.5 °F /  6.4 °C 29.9in /  1013.6hPa West 7mph /  11.3km/h 14mph /  22.5km/h 36% 0in /  0.0mm CLR
05:45 72 °F /  22.2 °C 43.5 °F /  6.4 °C 29.9in /  1013.6hPa West 7mph /  11.3km/h 14mph /  22.5km/h 36% 0in /  0.0mm CLR
05:50 71.8 °F /  22.1 °C 43.3 °F /  6.3 °C 29.9in /  1013.7hPa West 7mph /  11.3km/h 14mph /  22.5km/h 36% 0in /  0.0mm CLR
05:55 71.8 °F /  22.1 °C 43.3 °F /  6.3 °C 29.9in /  1013.7hPa West 7mph /  11.3km/h 13mph /  20.9km/h 36% 0in /  0.0mm CLR
06:00 71.6 °F /  22.0 °C 43.2 °F /  6.2 °C 29.9in /  1013.7hPa West 7mph /  11.3km/h 15mph /  24.1km/h 36% 0in /  0.0mm CLR
06:05 71.4 °F /  21.9 °C 43.2 °F /  6.2 °C 29.9in /  1013.8hPa West 7mph /  11.3km/h 10mph /  16.1km/h 36% 0in /  0.0mm CLR
06:10 71.4 °F /  21.9 °C 43.2 °F /  6.2 °C 29.9in /  1013.8hPa West 6mph /  9.7km/h 12mph /  19.3km/h 36% 0in /  0.0mm CLR
06:15 71.4 °F /  21.9 °C 43.2 °F /  6.2 °C 29.9in /  1013.8hPa WSW 6mph /  9.7km/h 14mph /  22.5km/h 36% 0in /  0.0mm CLR
06:20 71.4 °F /  21.9 °C 43.2 °F /  6.2 °C 29.9in /  1014.0hPa West 8mph /  12.9km/h 17mph /  27.4km/h 36% 0in /  0.0mm CLR
06:24 71.4 °F /  21.9 °C 43.2 °F /  6.2 °C 29.9in /  1014.0hPa West 8.1mph /  13.0km/h 10.4mph /  16.7km/h 36% 0in /  0.0mm CLR
06:30 71.2 °F /  21.8 °C 43 °F /  6.1 °C 29.9in /  1014.0hPa West 7mph /  11.3km/h 10mph /  16.1km/h 36% 0in /  0.0mm CLR
06:35 71.2 °F /  21.8 °C 43 °F /  6.1 °C 30in /  1014.3hPa WSW 7mph /  11.3km/h 12mph /  19.3km/h 36% 0in /  0.0mm CLR
06:40 71.1 °F /  21.7 °C 42.6 °F /  5.9 °C 30in /  1014.3hPa WSW 6mph /  9.7km/h 11mph /  17.7km/h 36% 0in /  0.0mm CLR
06:45 71.1 °F /  21.7 °C 42.6 °F /  5.9 °C 30in /  1014.3hPa WSW 6mph /  9.7km/h 10mph /  16.1km/h 36% 0in /  0.0mm CLR
06:49 71.1 °F /  21.7 °C 42.6 °F /  5.9 °C 30in /  1014.5hPa SW 5.9mph /  9.5km/h 6.9mph /  11.1km/h 36% 0in /  0.0mm CLR
06:55 71.1 °F /  21.7 °C 42.6 °F /  5.9 °C 30in /  1014.5hPa WSW 6mph /  9.7km/h 9mph /  14.5km/h 36% 0in /  0.0mm CLR
07:00 70.9 °F /  21.6 °C 42.6 °F /  5.9 °C 30in /  1014.5hPa West 6mph /  9.7km/h 10mph /  16.1km/h 36% 0in /  0.0mm CLR
07:05 70.9 °F /  21.6 °C 41.9 °F /  5.5 °C 30in /  1014.6hPa WSW 6mph /  9.7km/h 12mph /  19.3km/h 35% 0in /  0.0mm CLR
07:10 70.9 °F /  21.6 °C 42.6 °F /  5.9 °C 30in /  1014.6hPa WSW 7mph /  11.3km/h 16mph /  25.7km/h 36% 0in /  0.0mm CLR
07:15 70.9 °F /  21.6 °C 42.6 °F /  5.9 °C 30in /  1014.6hPa WSW 7mph /  11.3km/h 12mph /  19.3km/h 36% 0in /  0.0mm CLR
07:19 70.9 °F /  21.6 °C 42.6 °F /  5.9 °C 30in /  1014.6hPa SW 5.9mph /  9.5km/h 8.1mph /  13.0km/h 36% 0in /  0.0mm CLR
07:25 70.9 °F /  21.6 °C 41.9 °F /  5.5 °C 30in /  1014.6hPa WSW 6mph /  9.7km/h 19mph /  30.6km/h 35% 0in /  0.0mm CLR
07:30 70.9 °F /  21.6 °C 41.9 °F /  5.5 °C 30in /  1014.6hPa WSW 8mph /  12.9km/h 12mph /  19.3km/h 35% 0in /  0.0mm CLR
07:34 71.1 °F /  21.7 °C 42.1 °F /  5.6 °C 30in /  1014.7hPa WSW 8.1mph /  13.0km/h 10.4mph /  16.7km/h 35% 0in /  0.0mm CLR
07:40 71.2 °F /  21.8 °C 42.1 °F /  5.6 °C 30in /  1014.7hPa WSW 8mph /  12.9km/h 16mph /  25.7km/h 35% 0in /  0.0mm CLR
07:44 71.2 °F /  21.8 °C 42.3 °F /  5.7 °C 30in /  1014.7hPa WSW 7.6mph /  12.2km/h 13.8mph /  22.2km/h 35% 0in /  0.0mm CLR
07:50 71.2 °F /  21.8 °C 42.3 °F /  5.7 °C 30in /  1015.0hPa WSW 8mph /  12.9km/h 13mph /  20.9km/h 35% 0in /  0.0mm CLR
07:55 71.4 °F /  21.9 °C 43.2 °F /  6.2 °C 30in /  1015.0hPa WSW 8mph /  12.9km/h 10mph /  16.1km/h 36% 0in /  0.0mm CLR
07:59 71.2 °F /  21.8 °C 43 °F /  6.1 °C 30in /  1015.0hPa WNW 5.4mph /  8.7km/h 10.7mph /  17.2km/h 36% 0in /  0.0mm CLR
08:04 71.2 °F /  21.8 °C 42.3 °F /  5.7 °C 30in /  1015.2hPa West 5.4mph /  8.7km/h 9.2mph /  14.8km/h 35% 0in /  0.0mm CLR
08:10 71.4 °F /  21.9 °C 43.2 °F /  6.2 °C 30in /  1015.2hPa WSW 6mph /  9.7km/h 10mph /  16.1km/h 36% 0in /  0.0mm CLR
08:15 71.6 °F /  22.0 °C 42.4 °F /  5.8 °C 30in /  1015.2hPa WSW 6mph /  9.7km/h 11mph /  17.7km/h 35% 0in /  0.0mm CLR
08:19 71.8 °F /  22.1 °C 42.6 °F /  5.9 °C 30in /  1015.3hPa SW 6.2mph /  10.0km/h 9.2mph /  14.8km/h 35% 0in /  0.0mm CLR
08:25 72 °F /  22.2 °C 42.8 °F /  6.0 °C 30in /  1015.3hPa WSW 6mph /  9.7km/h 15mph /  24.1km/h 35% 0in /  0.0mm CLR
08:30 72.1 °F /  22.3 °C 42.3 °F /  5.7 °C 30in /  1015.3hPa West 7mph /  11.3km/h 12mph /  19.3km/h 34% 0in /  0.0mm CLR
08:35 72.3 °F /  22.4 °C 42.4 °F /  5.8 °C 30in /  1015.5hPa West 7mph /  11.3km/h 15mph /  24.1km/h 34% 0in /  0.0mm CLR
08:39 72.3 °F /  22.4 °C 42.4 °F /  5.8 °C 30in /  1015.5hPa WNW 8.5mph /  13.7km/h 15mph /  24.1km/h 34% 0in /  0.0mm CLR
08:44 72.3 °F /  22.4 °C 42.4 °F /  5.8 °C 30in /  1015.5hPa WSW 8.5mph /  13.7km/h 18.4mph /  29.6km/h 34% 0in /  0.0mm CLR
08:50 72.3 °F /  22.4 °C 42.3 °F /  5.7 °C 30in /  1015.7hPa West 9mph /  14.5km/h 18mph /  29.0km/h 34% 0in /  0.0mm CLR
08:54 72.1 °F /  22.3 °C 42.3 °F /  5.7 °C 30in /  1015.7hPa West 8.7mph /  14.0km/h 17.3mph /  27.8km/h 34% 0in /  0.0mm CLR
08:59 72.3 °F /  22.4 °C 42.4 °F /  5.8 °C 30in /  1015.7hPa West 10.7mph /  17.2km/h 15.6mph /  25.1km/h 34% 0in /  0.0mm CLR
09:04 72.1 °F /  22.3 °C 42.3 °F /  5.7 °C 30in /  1015.9hPa West 10.7mph /  17.2km/h 18.4mph /  29.6km/h 34% 0in /  0.0mm CLR
09:10 72.1 °F /  22.3 °C 42.3 °F /  5.7 °C 30in /  1015.9hPa West 12mph /  19.3km/h 21mph /  33.8km/h 34% 0in /  0.0mm CLR
09:14 72.1 °F /  22.3 °C 42.3 °F /  5.7 °C 30in /  1015.9hPa WNW 11.2mph /  18.0km/h 17.3mph /  27.8km/h 34% 0in /  0.0mm CLR
09:19 72.3 °F /  22.4 °C 42.4 °F /  5.8 °C 30in /  1016.1hPa West 11.8mph /  19.0km/h 17.5mph /  28.2km/h 34% 0in /  0.0mm CLR
09:24 72.7 °F /  22.6 °C 42.6 °F /  5.9 °C 30in /  1016.1hPa WNW 11.8mph /  19.0km/h 18.4mph /  29.6km/h 34% 0in /  0.0mm CLR
09:30 73 °F /  22.8 °C 43 °F /  6.1 °C 30in /  1016.1hPa WNW 10mph /  16.1km/h 18mph /  29.0km/h 34% 0in /  0.0mm CLR
09:34 72.9 °F /  22.7 °C 42.8 °F /  6.0 °C 30in /  1016.2hPa West 10.2mph /  16.4km/h 15mph /  24.1km/h 34% 0in /  0.0mm CLR
09:39 72.9 °F /  22.7 °C 42.1 °F /  5.6 °C 30in /  1016.2hPa West 12.5mph /  20.1km/h 20.7mph /  33.3km/h 33% 0in /  0.0mm CLR
09:44 72.9 °F /  22.7 °C 42.1 °F /  5.6 °C 30in /  1016.2hPa WNW 12.5mph /  20.1km/h 25.3mph /  40.7km/h 33% 0in /  0.0mm CLR
09:49 72.9 °F /  22.7 °C 42.1 °F /  5.6 °C 30in /  1016.3hPa NW 15.6mph /  25.1km/h 22.3mph /  35.9km/h 33% 0in /  0.0mm CLR
09:55 73 °F /  22.8 °C 42.3 °F /  5.7 °C 30in /  1016.3hPa WNW 16mph /  25.7km/h 26mph /  41.8km/h 33% 0in /  0.0mm CLR
09:59 73 °F /  22.8 °C 42.3 °F /  5.7 °C 30in /  1016.3hPa WNW 14.5mph /  23.3km/h 19.6mph /  31.5km/h 33% 0in /  0.0mm CLR
10:04 73.4 °F /  23.0 °C 43.3 °F /  6.3 °C 30in /  1016.4hPa NW 14.5mph /  23.3km/h 21.9mph /  35.2km/h 34% 0in /  0.0mm CLR
10:10 73.6 °F /  23.1 °C 43.5 °F /  6.4 °C 30in /  1016.4hPa WNW 12mph /  19.3km/h 20mph /  32.2km/h 34% 0in /  0.0mm CLR
10:14 73.8 °F /  23.2 °C 43 °F /  6.1 °C 30in /  1016.4hPa WNW 11.4mph /  18.3km/h 17.3mph /  27.8km/h 33% 0in /  0.0mm CLR
10:19 73.9 °F /  23.3 °C 43 °F /  6.1 °C 30in /  1016.5hPa West 11.8mph /  19.0km/h 21.9mph /  35.2km/h 33% 0in /  0.0mm CLR
10:25 73.9 °F /  23.3 °C 43 °F /  6.1 °C 30in /  1016.5hPa WNW 12mph /  19.3km/h 20mph /  32.2km/h 33% 0in /  0.0mm CLR
10:29 74.3 °F /  23.5 °C 43.3 °F /  6.3 °C 30in /  1016.5hPa West 11.8mph /  19.0km/h 15mph /  24.1km/h 33% 0in /  0.0mm CLR
10:35 74.5 °F /  23.6 °C 42.6 °F /  5.9 °C 30in /  1016.5hPa WNW 12mph /  19.3km/h 21mph /  33.8km/h 32% 0in /  0.0mm CLR
10:39 74.5 °F /  23.6 °C 43.5 °F /  6.4 °C 30in /  1016.5hPa NW 11.4mph /  18.3km/h 13.8mph /  22.2km/h 33% 0in /  0.0mm CLR
10:44 74.7 °F /  23.7 °C 43.5 °F /  6.4 °C 30in /  1016.5hPa WNW 11.4mph /  18.3km/h 18.4mph /  29.6km/h 33% 0in /  0.0mm CLR
10:49 75 °F /  23.9 °C 43.2 °F /  6.2 °C 30in /  1016.4hPa WNW 10.7mph /  17.2km/h 10.4mph /  16.7km/h 32% 0in /  0.0mm CLR
10:54 75 °F /  23.9 °C 42.3 °F /  5.7 °C 30in /  1016.4hPa WNW 10.7mph /  17.2km/h 15mph /  24.1km/h 31% 0in /  0.0mm CLR
10:59 75.4 °F /  24.1 °C 43.5 °F /  6.4 °C 30in /  1016.4hPa West 9.7mph /  15.6km/h 12.7mph /  20.4km/h 32% 0in /  0.0mm CLR
11:05 75.4 °F /  24.1 °C 42.6 °F /  5.9 °C 30in /  1016.3hPa WNW 9mph /  14.5km/h 17mph /  27.4km/h 31% 0in /  0.0mm CLR
11:10 75.6 °F /  24.2 °C 42.8 °F /  6.0 °C 30in /  1016.3hPa WNW 10mph /  16.1km/h 16mph /  25.7km/h 31% 0in /  0.0mm CLR
11:15 75.9 °F /  24.4 °C 43.2 °F /  6.2 °C 30in /  1016.3hPa West 10mph /  16.1km/h 16mph /  25.7km/h 31% 0in /  0.0mm CLR
11:19 76.5 °F /  24.7 °C 42.6 °F /  5.9 °C 30in /  1016.3hPa WSW 8.7mph /  14.0km/h 11.5mph /  18.5km/h 30% 0in /  0.0mm CLR
11:25 76.5 °F /  24.7 °C 42.6 °F /  5.9 °C 30in /  1016.3hPa WNW 8.7mph /  14.0km/h 8.5mph /  13.7km/h 30% 0in /  0.0mm CLR
11:29 76.6 °F /  24.8 °C 43.7 °F /  6.5 °C 30in /  1016.3hPa NW 7.4mph /  11.9km/h 12.7mph /  20.4km/h 31% 0in /  0.0mm CLR
11:34 76.6 °F /  24.8 °C 43.7 °F /  6.5 °C 30in /  1016.3hPa West 7.4mph /  11.9km/h 13mph /  20.9km/h 31% 0in /  0.0mm CLR
11:39 76.8 °F /  24.9 °C 43 °F /  6.1 °C 30in /  1016.3hPa West 8.1mph /  13.0km/h 12.5mph /  20.1km/h 30% 0in /  0.0mm CLR
11:44 77 °F /  25.0 °C 43.2 °F /  6.2 °C 30in /  1016.3hPa West 8.1mph /  13.0km/h 12.7mph /  20.4km/h 30% 0in /  0.0mm CLR
11:49 77.4 °F /  25.2 °C 42.6 °F /  5.9 °C 30in /  1016.2hPa West 8.5mph /  13.7km/h 13.8mph /  22.2km/h 29% 0in /  0.0mm CLR
11:54 77.5 °F /  25.3 °C 42.8 °F /  6.0 °C 30in /  1016.2hPa West 8.5mph /  13.7km/h 13.8mph /  22.2km/h 29% 0in /  0.0mm CLR
11:59 77.5 °F /  25.3 °C 42.8 °F /  6.0 °C 30in /  1016.2hPa WSW 8.1mph /  13.0km/h 12.7mph /  20.4km/h 29% 0in /  0.0mm CLR
12:04 78.3 °F /  25.7 °C 43.3 °F /  6.3 °C 30in /  1016.0hPa WSW 8.1mph /  13.0km/h 11.5mph /  18.5km/h 29% 0in /  0.0mm CLR
12:09 78.4 °F /  25.8 °C 43.5 °F /  6.4 °C 30in /  1016.0hPa WNW 6.2mph /  10.0km/h 10.4mph /  16.7km/h 29% 0in /  0.0mm CLR
12:14 79 °F /  26.1 °C 43.2 °F /  6.2 °C 30in /  1016.0hPa West 6.2mph /  10.0km/h 13.8mph /  22.2km/h 28% 0in /  0.0mm CLR
12:19 78.6 °F /  25.9 °C 42.8 °F /  6.0 °C 30in /  1016.1hPa WSW 7.4mph /  11.9km/h 13.8mph /  22.2km/h 28% 0in /  0.0mm CLR
12:24 79.2 °F /  26.2 °C 43.2 °F /  6.2 °C 30in /  1016.1hPa SSW 7.4mph /  11.9km/h 9.2mph /  14.8km/h 28% 0in /  0.0mm CLR
12:29 79.5 °F /  26.4 °C 43.5 °F /  6.4 °C 30in /  1016.1hPa WNW 5.4mph /  8.7km/h 7.6mph /  12.2km/h 28% 0in /  0.0mm CLR
12:34 79.2 °F /  26.2 °C 43.2 °F /  6.2 °C 30in /  1015.9hPa WNW 5.4mph /  8.7km/h 10.4mph /  16.7km/h 28% 0in /  0.0mm CLR
12:39 79.2 °F /  26.2 °C 43.2 °F /  6.2 °C 30in /  1015.9hPa West 6.4mph /  10.3km/h 6.9mph /  11.1km/h 28% 0in /  0.0mm CLR
12:45 79.3 °F /  26.3 °C 43.3 °F /  6.3 °C 30in /  1015.9hPa WSW 7mph /  11.3km/h 11mph /  17.7km/h 28% 0in /  0.0mm CLR
12:49 79.3 °F /  26.3 °C 43.3 °F /  6.3 °C 30in /  1015.9hPa South 6.4mph /  10.3km/h 10.4mph /  16.7km/h 28% 0in /  0.0mm CLR
12:54 79.5 °F /  26.4 °C 43.5 °F /  6.4 °C 30in /  1015.9hPa South 6.4mph /  10.3km/h 6.9mph /  11.1km/h 28% 0in /  0.0mm CLR
12:59 79.7 °F /  26.5 °C 42.8 °F /  6.0 °C 30in /  1015.9hPa WNW 5.4mph /  8.7km/h 5.4mph /  8.7km/h 27% 0in /  0.0mm CLR
13:04 80.2 °F /  26.8 °C 43.2 °F /  6.2 °C 30in /  1015.8hPa WNW 5.4mph /  8.7km/h 8.5mph /  13.7km/h 27% 0in /  0.0mm CLR
13:09 80.2 °F /  26.8 °C 43.2 °F /  6.2 °C 30in /  1015.8hPa SSW 4.7mph /  7.6km/h 9.2mph /  14.8km/h 27% 0in /  0.0mm CLR
13:14 80.4 °F /  26.9 °C 43.3 °F /  6.3 °C 30in /  1015.8hPa WNW 4.7mph /  7.6km/h 4.6mph /  7.4km/h 27% 0in /  0.0mm CLR
13:19 80.8 °F /  27.1 °C 43.7 °F /  6.5 °C 30in /  1015.6hPa West 4.7mph /  7.6km/h 5.4mph /  8.7km/h 27% 0in /  0.0mm CLR
13:24 81.1 °F /  27.3 °C 44.1 °F /  6.7 °C 30in /  1015.6hPa NNW 4.7mph /  7.6km/h 5.8mph /  9.3km/h 27% 0in /  0.0mm CLR
13:29 81.5 °F /  27.5 °C 44.2 °F /  6.8 °C 30in /  1015.6hPa NNW 3.6mph /  5.8km/h 6.9mph /  11.1km/h 27% 0in /  0.0mm CLR
13:35 81.9 °F /  27.7 °C 43.5 °F /  6.4 °C 30in /  1015.5hPa SSW 3mph /  4.8km/h 13mph /  20.9km/h 26% 0in /  0.0mm CLR
13:39 81.9 °F /  27.7 °C 43.5 °F /  6.4 °C 30in /  1015.5hPa SW 5.2mph /  8.4km/h 11.5mph /  18.5km/h 26% 0in /  0.0mm CLR
13:44 81.3 °F /  27.4 °C 43.2 °F /  6.2 °C 30in /  1015.5hPa SW 5.2mph /  8.4km/h 6.9mph /  11.1km/h 26% 0in /  0.0mm CLR
13:50 81.3 °F /  27.4 °C 43.2 °F /  6.2 °C 30in /  1015.3hPa WSW 6mph /  9.7km/h 6mph /  9.7km/h 26% 0in /  0.0mm CLR
13:55 81.7 °F /  27.6 °C 43.5 °F /  6.4 °C 30in /  1015.3hPa SW 6mph /  9.7km/h 9mph /  14.5km/h 26% 0in /  0.0mm CLR
13:59 82.2 °F /  27.9 °C 43.9 °F /  6.6 °C 30in /  1015.3hPa West 3.6mph /  5.8km/h 8.1mph /  13.0km/h 26% 0in /  0.0mm CLR
14:04 82.4 °F /  28.0 °C 43 °F /  6.1 °C 30in /  1015.3hPa West 3.6mph /  5.8km/h 5.8mph /  9.3km/h 25% 0in /  0.0mm CLR
14:09 82.6 °F /  28.1 °C 43.2 °F /  6.2 °C 30in /  1015.3hPa West 4mph /  6.4km/h 5.8mph /  9.3km/h 25% 0in /  0.0mm CLR
14:14 82.9 °F /  28.3 °C 43.5 °F /  6.4 °C 30in /  1015.3hPa NW 4mph /  6.4km/h 6.4mph /  10.3km/h 25% 0in /  0.0mm CLR
14:19 83.1 °F /  28.4 °C 43.5 °F /  6.4 °C 30in /  1014.9hPa NW 3.6mph /  5.8km/h 8.1mph /  13.0km/h 25% 0in /  0.0mm CLR
14:24 83.3 °F /  28.5 °C 43.9 °F /  6.6 °C 30in /  1014.9hPa WNW 3.6mph /  5.8km/h 6.9mph /  11.1km/h 25% 0in /  0.0mm CLR
14:29 82.9 °F /  28.3 °C 43.5 °F /  6.4 °C 30in /  1014.9hPa NW 5.2mph /  8.4km/h 9.2mph /  14.8km/h 25% 0in /  0.0mm CLR
14:34 83.3 °F /  28.5 °C 43.9 °F /  6.6 °C 30in /  1014.8hPa NW 5.2mph /  8.4km/h 6.9mph /  11.1km/h 25% 0in /  0.0mm CLR
14:39 83.8 °F /  28.8 °C 44.2 °F /  6.8 °C 30in /  1014.8hPa NE 4.7mph /  7.6km/h 6.9mph /  11.1km/h 25% 0in /  0.0mm CLR
14:44 83.8 °F /  28.8 °C 44.2 °F /  6.8 °C 30in /  1014.8hPa WNW 4.7mph /  7.6km/h 6.9mph /  11.1km/h 25% 0in /  0.0mm CLR
14:50 84 °F /  28.9 °C 44.4 °F /  6.9 °C 30in /  1014.6hPa West 5mph /  8.0km/h 10mph /  16.1km/h 25% 0in /  0.0mm CLR
14:54 84 °F /  28.9 °C 44.4 °F /  6.9 °C 30in /  1014.6hPa WNW 4.7mph /  7.6km/h 6.9mph /  11.1km/h 25% 0in /  0.0mm CLR
14:59 84.6 °F /  29.2 °C 45 °F /  7.2 °C 30in /  1014.6hPa NW 5.2mph /  8.4km/h 8.1mph /  13.0km/h 25% 0in /  0.0mm CLR
15:04 84.7 °F /  29.3 °C 43.9 °F /  6.6 °C 30in /  1014.3hPa WNW 5.2mph /  8.4km/h 8.1mph /  13.0km/h 24% 0in /  0.0mm CLR
15:09 85.3 °F /  29.6 °C 44.4 °F /  6.9 °C 30in /  1014.3hPa West 5.2mph /  8.4km/h 7.6mph /  12.2km/h 24% 0in /  0.0mm CLR
15:14 84.9 °F /  29.4 °C 44.1 °F /  6.7 °C 30in /  1014.3hPa WNW 5.2mph /  8.4km/h 4.6mph /  7.4km/h 24% 0in /  0.0mm CLR
15:19 85.5 °F /  29.7 °C 44.4 °F /  6.9 °C 29.9in /  1014.1hPa North 5.2mph /  8.4km/h 8.1mph /  13.0km/h 24% 0in /  0.0mm CLR
15:24 85.8 °F /  29.9 °C 44.8 °F /  7.1 °C 29.9in /  1014.1hPa North 5.2mph /  8.4km/h 6.9mph /  11.1km/h 24% 0in /  0.0mm CLR
15:29 86 °F /  30.0 °C 45 °F /  7.2 °C 29.9in /  1014.1hPa WNW 4mph /  6.4km/h 5.9mph /  9.5km/h 24% 0in /  0.0mm CLR
15:34 85.8 °F /  29.9 °C 44.8 °F /  7.1 °C 29.9in /  1014.0hPa South 4mph /  6.4km/h 5.8mph /  9.3km/h 24% 0in /  0.0mm CLR
15:40 86 °F /  30.0 °C 46 °F /  7.8 °C 29.9in /  1014.0hPa WNW 5mph /  8.0km/h 10mph /  16.1km/h 25% 0in /  0.0mm CLR
15:44 86.5 °F /  30.3 °C 45.5 °F /  7.5 °C 29.9in /  1014.0hPa SE 4mph /  6.4km/h 12.7mph /  20.4km/h 24% 0in /  0.0mm CLR
15:49 86.5 °F /  30.3 °C 45.5 °F /  7.5 °C 29.9in /  1013.9hPa NE 4.3mph /  6.9km/h 5.8mph /  9.3km/h 24% 0in /  0.0mm CLR
15:54 86.5 °F /  30.3 °C 45.5 °F /  7.5 °C 29.9in /  1013.9hPa ESE 4.3mph /  6.9km/h 7.4mph /  11.9km/h 24% 0in /  0.0mm CLR
15:59 86.7 °F /  30.4 °C 46.8 °F /  8.2 °C 29.9in /  1013.9hPa NE 4.3mph /  6.9km/h 13mph /  20.9km/h 25% 0in /  0.0mm CLR
16:04 86.9 °F /  30.5 °C 49.8 °F /  9.9 °C 29.9in /  1013.7hPa SE 4.3mph /  6.9km/h 6.2mph /  10.0km/h 28% 0in /  0.0mm CLR
16:10 86.5 °F /  30.3 °C 49.6 °F /  9.8 °C 29.9in /  1013.7hPa East 6mph /  9.7km/h 13mph /  20.9km/h 28% 0in /  0.0mm CLR
16:14 86.5 °F /  30.3 °C 52.3 °F /  11.3 °C 29.9in /  1013.7hPa East 6.2mph /  10.0km/h 23mph /  37.0km/h 31% 0in /  0.0mm CLR
16:19 86.2 °F /  30.1 °C 52.9 °F /  11.6 °C 29.9in /  1013.8hPa ESE 8.7mph /  14.0km/h 18.4mph /  29.6km/h 32% 0in /  0.0mm CLR
16:24 85.6 °F /  29.8 °C 53.2 °F /  11.8 °C 29.9in /  1013.8hPa SSE 8.7mph /  14.0km/h 18.4mph /  29.6km/h 33% 0in /  0.0mm CLR
16:29 85.3 °F /  29.6 °C 52.2 °F /  11.2 °C 29.9in /  1013.8hPa ESE 11.4mph /  18.3km/h 18.4mph /  29.6km/h 32% 0in /  0.0mm CLR
16:34 85.5 °F /  29.7 °C 52.2 °F /  11.2 °C 29.9in /  1013.6hPa ESE 11.4mph /  18.3km/h 16.8mph /  27.0km/h 32% 0in /  0.0mm CLR
16:39 85.1 °F /  29.5 °C 52 °F /  11.1 °C 29.9in /  1013.6hPa ESE 11.2mph /  18.0km/h 15.6mph /  25.1km/h 32% 0in /  0.0mm CLR
16:44 84.4 °F /  29.1 °C 50.4 °F /  10.2 °C 29.9in /  1013.6hPa ESE 11.2mph /  18.0km/h 24.2mph /  38.9km/h 31% 0in /  0.0mm CLR
16:49 84.4 °F /  29.1 °C 50.4 °F /  10.2 °C 29.9in /  1013.6hPa SSE 13.7mph /  22.0km/h 16.1mph /  25.9km/h 31% 0in /  0.0mm CLR
16:54 84.7 °F /  29.3 °C 50.7 °F /  10.4 °C 29.9in /  1013.6hPa SSE 13.7mph /  22.0km/h 13.8mph /  22.2km/h 31% 0in /  0.0mm CLR
16:59 84.9 °F /  29.4 °C 50 °F /  10.0 °C 29.9in /  1013.6hPa SE 10.7mph /  17.2km/h 17.3mph /  27.8km/h 30% 0in /  0.0mm CLR
17:04 84.6 °F /  29.2 °C 49.6 °F /  9.8 °C 29.9in /  1013.6hPa SE 10.7mph /  17.2km/h 16.8mph /  27.0km/h 30% 0in /  0.0mm CLR
17:09 84.7 °F /  29.3 °C 49.8 °F /  9.9 °C 29.9in /  1013.6hPa SSE 11.4mph /  18.3km/h 15mph /  24.1km/h 30% 0in /  0.0mm CLR
17:14 85.3 °F /  29.6 °C 49.5 °F /  9.7 °C 29.9in /  1013.6hPa ESE 11.4mph /  18.3km/h 17.3mph /  27.8km/h 29% 0in /  0.0mm CLR
17:19 85.3 °F /  29.6 °C 50.4 °F /  10.2 °C 29.9in /  1013.5hPa ESE 9.7mph /  15.6km/h 17.3mph /  27.8km/h 30% 0in /  0.0mm CLR
17:24 85.3 °F /  29.6 °C 49.5 °F /  9.7 °C 29.9in /  1013.5hPa SE 9.7mph /  15.6km/h 11.8mph /  19.0km/h 29% 0in /  0.0mm CLR
17:29 84.9 °F /  29.4 °C 49.1 °F /  9.5 °C 29.9in /  1013.5hPa ESE 10.7mph /  17.2km/h 15mph /  24.1km/h 29% 0in /  0.0mm CLR
17:34 84.7 °F /  29.3 °C 48.9 °F /  9.4 °C 29.9in /  1013.4hPa SE 10.7mph /  17.2km/h 16.1mph /  25.9km/h 29% 0in /  0.0mm CLR
17:39 84.7 °F /  29.3 °C 48.9 °F /  9.4 °C 29.9in /  1013.4hPa ESE 11.4mph /  18.3km/h 15mph /  24.1km/h 29% 0in /  0.0mm CLR
17:44 84.9 °F /  29.4 °C 49.1 °F /  9.5 °C 29.9in /  1013.4hPa SE 11.4mph /  18.3km/h 15mph /  24.1km/h 29% 0in /  0.0mm CLR
17:49 84.9 °F /  29.4 °C 49.1 °F /  9.5 °C 29.9in /  1013.3hPa ESE 9.7mph /  15.6km/h 18.4mph /  29.6km/h 29% 0in /  0.0mm CLR
17:54 84.6 °F /  29.2 °C 48.7 °F /  9.3 °C 29.9in /  1013.3hPa SE 9.7mph /  15.6km/h 12.7mph /  20.4km/h 29% 0in /  0.0mm CLR
17:59 84.9 °F /  29.4 °C 49.1 °F /  9.5 °C 29.9in /  1013.3hPa SE 9.7mph /  15.6km/h 16.8mph /  27.0km/h 29% 0in /  0.0mm CLR
18:04 84.6 °F /  29.2 °C 48.7 °F /  9.3 °C 29.9in /  1013.3hPa SSE 9.7mph /  15.6km/h 15mph /  24.1km/h 29% 0in /  0.0mm CLR
18:09 84 °F /  28.9 °C 48.4 °F /  9.1 °C 29.9in /  1013.3hPa ESE 10.2mph /  16.4km/h 24.2mph /  38.9km/h 29% 0in /  0.0mm CLR
18:14 84 °F /  28.9 °C 48.4 °F /  9.1 °C 29.9in /  1013.3hPa ESE 10.2mph /  16.4km/h 15mph /  24.1km/h 29% 0in /  0.0mm CLR
18:19 84.4 °F /  29.1 °C 48.6 °F /  9.2 °C 29.9in /  1013.2hPa SE 10mph /  16.1km/h 15mph /  24.1km/h 29% 0in /  0.0mm CLR
18:24 84.7 °F /  29.3 °C 48 °F /  8.9 °C 29.9in /  1013.2hPa ESE 10mph /  16.1km/h 12.7mph /  20.4km/h 28% 0in /  0.0mm CLR
18:29 84.6 °F /  29.2 °C 46.9 °F /  8.3 °C 29.9in /  1013.2hPa ESE 8.5mph /  13.7km/h 16.1mph /  25.9km/h 27% 0in /  0.0mm CLR
18:34 84.4 °F /  29.1 °C 47.7 °F /  8.7 °C 29.9in /  1013.2hPa SE 8.5mph /  13.7km/h 16.1mph /  25.9km/h 28% 0in /  0.0mm CLR
18:39 84 °F /  28.9 °C 47.5 °F /  8.6 °C 29.9in /  1013.2hPa SE 10.7mph /  17.2km/h 11.5mph /  18.5km/h 28% 0in /  0.0mm CLR
18:44 84.4 °F /  29.1 °C 47.7 °F /  8.7 °C 29.9in /  1013.2hPa ESE 10.7mph /  17.2km/h 11.5mph /  18.5km/h 28% 0in /  0.0mm CLR
18:49 84.2 °F /  29.0 °C 47.7 °F /  8.7 °C 29.9in /  1013.2hPa SE 8.1mph /  13.0km/h 13.8mph /  22.2km/h 28% 0in /  0.0mm CLR
18:54 83.8 °F /  28.8 °C 47.1 °F /  8.4 °C 29.9in /  1013.2hPa ENE 8.1mph /  13.0km/h 17.3mph /  27.8km/h 28% 0in /  0.0mm CLR
18:59 83.5 °F /  28.6 °C 47.8 °F /  8.8 °C 29.9in /  1013.2hPa ESE 11.2mph /  18.0km/h 17.3mph /  27.8km/h 29% 0in /  0.0mm CLR
19:04 83.8 °F /  28.8 °C 48.2 °F /  9.0 °C 29.9in /  1013.3hPa ESE 11.2mph /  18.0km/h 10.4mph /  16.7km/h 29% 0in /  0.0mm CLR
19:09 83.5 °F /  28.6 °C 47.8 °F /  8.8 °C 29.9in /  1013.3hPa SE 9.2mph /  14.8km/h 13.5mph /  21.7km/h 29% 0in /  0.0mm CLR
19:14 83.5 °F /  28.6 °C 47.8 °F /  8.8 °C 29.9in /  1013.3hPa SE 9.2mph /  14.8km/h 16.1mph /  25.9km/h 29% 0in /  0.0mm CLR
19:19 83.1 °F /  28.4 °C 47.7 °F /  8.7 °C 29.9in /  1013.4hPa ESE 9.7mph /  15.6km/h 16.1mph /  25.9km/h 29% 0in /  0.0mm CLR
19:24 82.9 °F /  28.3 °C 47.5 °F /  8.6 °C 29.9in /  1013.4hPa East 9.7mph /  15.6km/h 15mph /  24.1km/h 29% 0in /  0.0mm CLR
19:29 82.6 °F /  28.1 °C 47.1 °F /  8.4 °C 29.9in /  1013.4hPa ESE 10.7mph /  17.2km/h 15.9mph /  25.6km/h 29% 0in /  0.0mm CLR
19:34 82.8 °F /  28.2 °C 47.3 °F /  8.5 °C 29.9in /  1013.5hPa SE 10.7mph /  17.2km/h 13.8mph /  22.2km/h 29% 0in /  0.0mm CLR
19:39 82.9 °F /  28.3 °C 47.5 °F /  8.6 °C 29.9in /  1013.5hPa SE 8.5mph /  13.7km/h 14.7mph /  23.7km/h 29% 0in /  0.0mm CLR
19:44 82.6 °F /  28.1 °C 47.1 °F /  8.4 °C 29.9in /  1013.5hPa SE 8.5mph /  13.7km/h 18.4mph /  29.6km/h 29% 0in /  0.0mm CLR
19:49 82.8 °F /  28.2 °C 47.3 °F /  8.5 °C 29.9in /  1013.7hPa ESE 9.2mph /  14.8km/h 13.8mph /  22.2km/h 29% 0in /  0.0mm CLR
19:54 82.6 °F /  28.1 °C 47.1 °F /  8.4 °C 29.9in /  1013.7hPa SE 9.2mph /  14.8km/h 11.5mph /  18.5km/h 29% 0in /  0.0mm CLR
19:59 82.2 °F /  27.9 °C 46.8 °F /  8.2 °C 29.9in /  1013.7hPa SE 8.1mph /  13.0km/h 12.7mph /  20.4km/h 29% 0in /  0.0mm CLR
20:04 82.2 °F /  27.9 °C 46.8 °F /  8.2 °C 29.9in /  1013.8hPa SE 8.1mph /  13.0km/h 9.2mph /  14.8km/h 29% 0in /  0.0mm CLR
20:09 82.2 °F /  27.9 °C 46.8 °F /  8.2 °C 29.9in /  1013.8hPa SE 7.6mph /  12.2km/h 8.1mph /  13.0km/h 29% 0in /  0.0mm CLR
20:14 82 °F /  27.8 °C 46.6 °F /  8.1 °C 29.9in /  1013.8hPa ESE 7.6mph /  12.2km/h 9.2mph /  14.8km/h 29% 0in /  0.0mm CLR
20:19 81.9 °F /  27.7 °C 46.6 °F /  8.1 °C 29.9in /  1014.0hPa SE 6.9mph /  11.1km/h 11.5mph /  18.5km/h 29% 0in /  0.0mm CLR
20:24 81.7 °F /  27.6 °C 46.2 °F /  7.9 °C 29.9in /  1014.0hPa SE 6.9mph /  11.1km/h 8.1mph /  13.0km/h 29% 0in /  0.0mm CLR
20:29 81.1 °F /  27.3 °C 45.9 °F /  7.7 °C 29.9in /  1014.0hPa NE 7.4mph /  11.9km/h 12.7mph /  20.4km/h 29% 0in /  0.0mm CLR
20:34 81 °F /  27.2 °C 45.7 °F /  7.6 °C 29.9in /  1014.1hPa SE 7.4mph /  11.9km/h 9.2mph /  14.8km/h 29% 0in /  0.0mm CLR
20:39 80.8 °F /  27.1 °C 46.4 °F /  8.0 °C 29.9in /  1014.1hPa SE 7.4mph /  11.9km/h 9.2mph /  14.8km/h 30% 0in /  0.0mm CLR
20:44 80.8 °F /  27.1 °C 45.7 °F /  7.6 °C 29.9in /  1014.1hPa ESE 7.4mph /  11.9km/h 8.5mph /  13.7km/h 29% 0in /  0.0mm CLR
20:49 80.6 °F /  27.0 °C 45.3 °F /  7.4 °C 30in /  1014.3hPa ESE 5.9mph /  9.5km/h 9.2mph /  14.8km/h 29% 0in /  0.0mm CLR
20:54 80.2 °F /  26.8 °C 45.1 °F /  7.3 °C 30in /  1014.3hPa East 5.9mph /  9.5km/h 9.2mph /  14.8km/h 29% 0in /  0.0mm CLR
20:59 80.1 °F /  26.7 °C 45 °F /  7.2 °C 30in /  1014.3hPa East 6.2mph /  10.0km/h 8.1mph /  13.0km/h 29% 0in /  0.0mm CLR
21:04 79.7 °F /  26.5 °C 45.5 °F /  7.5 °C 30in /  1014.4hPa ESE 6.2mph /  10.0km/h 10.4mph /  16.7km/h 30% 0in /  0.0mm CLR
21:09 79.3 °F /  26.3 °C 45.1 °F /  7.3 °C 30in /  1014.4hPa East 6.9mph /  11.1km/h 10mph /  16.1km/h 30% 0in /  0.0mm CLR
21:14 79.2 °F /  26.2 °C 45 °F /  7.2 °C 30in /  1014.4hPa SE 6.9mph /  11.1km/h 9.2mph /  14.8km/h 30% 0in /  0.0mm CLR
21:19 78.8 °F /  26.0 °C 44.8 °F /  7.1 °C 30in /  1014.5hPa SE 7.4mph /  11.9km/h 11.5mph /  18.5km/h 30% 0in /  0.0mm CLR
21:24 78.4 °F /  25.8 °C 45.3 °F /  7.4 °C 30in /  1014.5hPa ESE 7.4mph /  11.9km/h 11.5mph /  18.5km/h 31% 0in /  0.0mm CLR
21:29 78.3 °F /  25.7 °C 45.1 °F /  7.3 °C 30in /  1014.5hPa ESE 7.6mph /  12.2km/h 10.7mph /  17.2km/h 31% 0in /  0.0mm CLR
21:34 77.7 °F /  25.4 °C 44.8 °F /  7.1 °C 30in /  1014.6hPa ESE 7.6mph /  12.2km/h 12.7mph /  20.4km/h 31% 0in /  0.0mm CLR
21:39 77.5 °F /  25.3 °C 44.4 °F /  6.9 °C 30in /  1014.6hPa ESE 8.1mph /  13.0km/h 12.3mph /  19.8km/h 31% 0in /  0.0mm CLR
21:44 77.4 °F /  25.2 °C 45.1 °F /  7.3 °C 30in /  1014.6hPa ESE 8.1mph /  13.0km/h 9.2mph /  14.8km/h 32% 0in /  0.0mm CLR
21:49 77.2 °F /  25.1 °C 44.2 °F /  6.8 °C 30in /  1014.8hPa East 7.6mph /  12.2km/h 12.7mph /  20.4km/h 31% 0in /  0.0mm CLR
21:54 76.8 °F /  24.9 °C 44.8 °F /  7.1 °C 30in /  1014.8hPa ESE 7.6mph /  12.2km/h 8.1mph /  13.0km/h 32% 0in /  0.0mm CLR
21:59 76.6 °F /  24.8 °C 44.6 °F /  7.0 °C 30in /  1014.8hPa ESE 6.2mph /  10.0km/h 9.2mph /  14.8km/h 32% 0in /  0.0mm CLR
22:04 76.5 °F /  24.7 °C 44.4 °F /  6.9 °C 30in /  1014.9hPa ESE 6.2mph /  10.0km/h 9.2mph /  14.8km/h 32% 0in /  0.0mm CLR
22:09 76.5 °F /  24.7 °C 43.5 °F /  6.4 °C 30in /  1014.9hPa ESE 6.9mph /  11.1km/h 10.4mph /  16.7km/h 31% 0in /  0.0mm CLR
22:14 76.3 °F /  24.6 °C 43.3 °F /  6.3 °C 30in /  1014.9hPa ESE 6.9mph /  11.1km/h 10.4mph /  16.7km/h 31% 0in /  0.0mm CLR
22:19 76.1 °F /  24.5 °C 44.1 °F /  6.7 °C 30in /  1015.3hPa ESE 7.4mph /  11.9km/h 9.2mph /  14.8km/h 32% 0in /  0.0mm CLR
22:24 75.9 °F /  24.4 °C 43.9 °F /  6.6 °C 30in /  1015.3hPa ESE 7.4mph /  11.9km/h 6.9mph /  11.1km/h 32% 0in /  0.0mm CLR
22:29 75.7 °F /  24.3 °C 44.6 °F /  7.0 °C 30in /  1015.3hPa ENE 5.4mph /  8.7km/h 8.1mph /  13.0km/h 33% 0in /  0.0mm CLR
22:34 75.6 °F /  24.2 °C 44.4 °F /  6.9 °C 30in /  1015.6hPa ESE 5.4mph /  8.7km/h 5.8mph /  9.3km/h 33% 0in /  0.0mm CLR
22:39 75.4 °F /  24.1 °C 44.2 °F /  6.8 °C 30in /  1015.6hPa East 4mph /  6.4km/h 6.9mph /  11.1km/h 33% 0in /  0.0mm CLR
22:44 75 °F /  23.9 °C 44.1 °F /  6.7 °C 30in /  1015.6hPa East 4mph /  6.4km/h 5.8mph /  9.3km/h 33% 0in /  0.0mm CLR
22:49 74.8 °F /  23.8 °C 43.9 °F /  6.6 °C 30in /  1015.9hPa East 3.6mph /  5.8km/h 3.5mph /  5.6km/h 33% 0in /  0.0mm CLR
22:54 74.8 °F /  23.8 °C 43.9 °F /  6.6 °C 30in /  1015.9hPa NE 3.6mph /  5.8km/h 3.1mph /  5.0km/h 33% 0in /  0.0mm CLR
22:59 74.7 °F /  23.7 °C 44.4 °F /  6.9 °C 30in /  1015.9hPa NNE 2mph /  3.2km/h 5.9mph /  9.5km/h 34% 0in /  0.0mm CLR
23:04 74.3 °F /  23.5 °C 45 °F /  7.2 °C 30in /  1016.1hPa NE 2mph /  3.2km/h 7.4mph /  11.9km/h 35% 0in /  0.0mm CLR
23:09 73.9 °F /  23.3 °C 46 °F /  7.8 °C 30in /  1016.1hPa NNE 5.2mph /  8.4km/h 5.4mph /  8.7km/h 37% 0in /  0.0mm CLR
23:14 73.8 °F /  23.2 °C 46.6 °F /  8.1 °C 30in /  1016.1hPa NE 5.2mph /  8.4km/h 8.1mph /  13.0km/h 38% 0in /  0.0mm CLR
23:19 73.6 °F /  23.1 °C 46.4 °F /  8.0 °C 30in /  1016.4hPa NE 5.9mph /  9.5km/h 8.1mph /  13.0km/h 38% 0in /  0.0mm CLR
23:24 73.6 °F /  23.1 °C 47.1 °F /  8.4 °C 30in /  1016.4hPa NNE 5.9mph /  9.5km/h 7.6mph /  12.2km/h 39% 0in /  0.0mm CLR
23:29 73.2 °F /  22.9 °C 47.5 °F /  8.6 °C 30in /  1016.4hPa North 5.4mph /  8.7km/h 6.9mph /  11.1km/h 40% 0in /  0.0mm CLR
23:34 73 °F /  22.8 °C 47.3 °F /  8.5 °C 30in /  1016.5hPa NNE 5.4mph /  8.7km/h 6.9mph /  11.1km/h 40% 0in /  0.0mm CLR
23:39 72.9 °F /  22.7 °C 47.8 °F /  8.8 °C 30in /  1016.5hPa NE 4.7mph /  7.6km/h 8.1mph /  13.0km/h 41% 0in /  0.0mm CLR
23:44 72.7 °F /  22.6 °C 47.7 °F /  8.7 °C 30in /  1016.5hPa NE 4.7mph /  7.6km/h 8.1mph /  13.0km/h 41% 0in /  0.0mm CLR
23:49 72.3 °F /  22.4 °C 47.3 °F /  8.5 °C 30in /  1016.5hPa NNE 5.2mph /  8.4km/h 6.9mph /  11.1km/h 41% 0in /  0.0mm CLR
23:54 72.1 °F /  22.3 °C 47.8 °F /  8.8 °C 30in /  1016.5hPa NE 5.2mph /  8.4km/h 4.6mph /  7.4km/h 42% 0in /  0.0mm CLR
23:59 72 °F /  22.2 °C 47.7 °F /  8.7 °C 30in /  1016.5hPa NE 3.6mph /  5.8km/h 4.7mph /  7.6km/h 42% 0in /  0.0mm CLR
Murcia-Puente Tocinos, España
Compliments of Weather Underground - 2.75 mb

La estación de MeteoMurcia.com, publica sus datos en los siguientes proyectos:

Weather Underground PWS IMURCIAP2 Meteoclimatic www.awekas.at

W3Counter
Web Analytics